sensor_id;sensor_type;location;lat;lon;timestamp;pressure;altitude;pressure_sealevel;temperature;humidity
57250;BME280;43102;52.014;-0.680;2023-02-01T00:00:00;101469;;;5.94;68.94
57250;BME280;43102;52.014;-0.680;2023-02-01T00:01:04;101469;;;5.94;68.94
57250;BME280;43102;52.014;-0.680;2023-02-01T00:02:00;101461;;;5.95;69.07
57250;BME280;43102;52.014;-0.680;2023-02-01T00:03:00;101461;;;5.95;69.07
57250;BME280;43102;52.014;-0.680;2023-02-01T00:04:00;101461;;;5.95;69.07
57250;BME280;43102;52.014;-0.680;2023-02-01T00:05:00;101461;;;5.95;69.07
57250;BME280;43102;52.014;-0.680;2023-02-01T00:06:00;101461;;;5.95;69.07
57250;BME280;43102;52.014;-0.680;2023-02-01T00:07:00;101449;;;5.90;69.38
57250;BME280;43102;52.014;-0.680;2023-02-01T00:08:00;101449;;;5.90;69.38
57250;BME280;43102;52.014;-0.680;2023-02-01T00:09:01;101449;;;5.90;69.38
57250;BME280;43102;52.014;-0.680;2023-02-01T00:10:00;101449;;;5.90;69.38
57250;BME280;43102;52.014;-0.680;2023-02-01T00:11:00;101449;;;5.90;69.38
57250;BME280;43102;52.014;-0.680;2023-02-01T00:12:00;101452;;;5.94;69.24
57250;BME280;43102;52.014;-0.680;2023-02-01T00:13:00;101452;;;5.94;69.24
57250;BME280;43102;52.014;-0.680;2023-02-01T00:14:00;101452;;;5.94;69.24
57250;BME280;43102;52.014;-0.680;2023-02-01T00:15:00;101452;;;5.94;69.24
57250;BME280;43102;52.014;-0.680;2023-02-01T00:16:05;101452;;;5.94;69.24
57250;BME280;43102;52.014;-0.680;2023-02-01T00:17:00;101450;;;5.94;69.00
57250;BME280;43102;52.014;-0.680;2023-02-01T00:18:00;101450;;;5.94;69.00
57250;BME280;43102;52.014;-0.680;2023-02-01T00:19:01;101450;;;5.94;69.00
57250;BME280;43102;52.014;-0.680;2023-02-01T00:20:00;101450;;;5.94;69.00
57250;BME280;43102;52.014;-0.680;2023-02-01T00:21:00;101450;;;5.94;69.00
57250;BME280;43102;52.014;-0.680;2023-02-01T00:22:00;101446;;;5.88;69.45
57250;BME280;43102;52.014;-0.680;2023-02-01T00:23:00;101446;;;5.88;69.45
57250;BME280;43102;52.014;-0.680;2023-02-01T00:24:00;101446;;;5.88;69.45
57250;BME280;43102;52.014;-0.680;2023-02-01T00:25:00;101446;;;5.88;69.45
57250;BME280;43102;52.014;-0.680;2023-02-01T00:26:00;101446;;;5.88;69.45
57250;BME280;43102;52.014;-0.680;2023-02-01T00:27:00;101437;;;5.84;69.56
57250;BME280;43102;52.014;-0.680;2023-02-01T00:28:00;101437;;;5.84;69.56
57250;BME280;43102;52.014;-0.680;2023-02-01T00:29:00;101437;;;5.84;69.56
57250;BME280;43102;52.014;-0.680;2023-02-01T00:30:00;101437;;;5.84;69.56
57250;BME280;43102;52.014;-0.680;2023-02-01T00:31:00;101437;;;5.84;69.56
57250;BME280;43102;52.014;-0.680;2023-02-01T00:32:00;101435;;;5.81;69.54
57250;BME280;43102;52.014;-0.680;2023-02-01T00:33:00;101435;;;5.81;69.54
57250;BME280;43102;52.014;-0.680;2023-02-01T00:34:00;101435;;;5.81;69.54
57250;BME280;43102;52.014;-0.680;2023-02-01T00:35:00;101435;;;5.81;69.54
57250;BME280;43102;52.014;-0.680;2023-02-01T00:36:00;101435;;;5.81;69.54
57250;BME280;43102;52.014;-0.680;2023-02-01T00:37:00;101423;;;5.74;69.81
57250;BME280;43102;52.014;-0.680;2023-02-01T00:38:00;101423;;;5.74;69.81
57250;BME280;43102;52.014;-0.680;2023-02-01T00:39:00;101423;;;5.74;69.81
57250;BME280;43102;52.014;-0.680;2023-02-01T00:40:00;101423;;;5.74;69.81
57250;BME280;43102;52.014;-0.680;2023-02-01T00:41:04;101423;;;5.74;69.81
57250;BME280;43102;52.014;-0.680;2023-02-01T00:42:00;101420;;;5.81;69.98
57250;BME280;43102;52.014;-0.680;2023-02-01T00:43:00;101420;;;5.81;69.98
57250;BME280;43102;52.014;-0.680;2023-02-01T00:44:00;101420;;;5.81;69.98
57250;BME280;43102;52.014;-0.680;2023-02-01T00:45:00;101420;;;5.81;69.98
57250;BME280;43102;52.014;-0.680;2023-02-01T00:46:00;101420;;;5.81;69.98
57250;BME280;43102;52.014;-0.680;2023-02-01T00:47:00;101422;;;5.79;69.91
57250;BME280;43102;52.014;-0.680;2023-02-01T00:48:00;101422;;;5.79;69.91
57250;BME280;43102;52.014;-0.680;2023-02-01T00:49:00;101422;;;5.79;69.91
57250;BME280;43102;52.014;-0.680;2023-02-01T00:50:00;101422;;;5.79;69.91
57250;BME280;43102;52.014;-0.680;2023-02-01T00:51:00;101422;;;5.79;69.91
57250;BME280;43102;52.014;-0.680;2023-02-01T00:52:00;101419;;;5.74;70.00
57250;BME280;43102;52.014;-0.680;2023-02-01T00:53:00;101419;;;5.74;70.00
57250;BME280;43102;52.014;-0.680;2023-02-01T00:54:00;101419;;;5.74;70.00
57250;BME280;43102;52.014;-0.680;2023-02-01T00:55:00;101419;;;5.74;70.00
57250;BME280;43102;52.014;-0.680;2023-02-01T00:56:00;101419;;;5.74;70.00
57250;BME280;43102;52.014;-0.680;2023-02-01T00:57:00;101412;;;5.78;70.17
57250;BME280;43102;52.014;-0.680;2023-02-01T00:58:00;101412;;;5.78;70.17
57250;BME280;43102;52.014;-0.680;2023-02-01T00:59:00;101412;;;5.78;70.17
57250;BME280;43102;52.014;-0.680;2023-02-01T01:00:00;101412;;;5.78;70.17
57250;BME280;43102;52.014;-0.680;2023-02-01T01:01:01;101412;;;5.78;70.17
57250;BME280;43102;52.014;-0.680;2023-02-01T01:02:00;101406;;;5.75;70.27
57250;BME280;43102;52.014;-0.680;2023-02-01T01:03:00;101406;;;5.75;70.27
57250;BME280;43102;52.014;-0.680;2023-02-01T01:04:00;101406;;;5.75;70.27
57250;BME280;43102;52.014;-0.680;2023-02-01T01:05:00;101406;;;5.75;70.27
57250;BME280;43102;52.014;-0.680;2023-02-01T01:06:00;101406;;;5.75;70.27
57250;BME280;43102;52.014;-0.680;2023-02-01T01:07:00;101400;;;5.73;70.41
57250;BME280;43102;52.014;-0.680;2023-02-01T01:08:00;101400;;;5.73;70.41
57250;BME280;43102;52.014;-0.680;2023-02-01T01:09:00;101400;;;5.73;70.41
57250;BME280;43102;52.014;-0.680;2023-02-01T01:10:00;101400;;;5.73;70.41
57250;BME280;43102;52.014;-0.680;2023-02-01T01:11:08;101400;;;5.73;70.41
57250;BME280;43102;52.014;-0.680;2023-02-01T01:12:00;101401;;;5.67;70.57
57250;BME280;43102;52.014;-0.680;2023-02-01T01:13:00;101401;;;5.67;70.57
57250;BME280;43102;52.014;-0.680;2023-02-01T01:14:00;101401;;;5.67;70.57
57250;BME280;43102;52.014;-0.680;2023-02-01T01:15:00;101401;;;5.67;70.57
57250;BME280;43102;52.014;-0.680;2023-02-01T01:16:01;101401;;;5.67;70.57
57250;BME280;43102;52.014;-0.680;2023-02-01T01:17:00;101399;;;5.64;70.76
57250;BME280;43102;52.014;-0.680;2023-02-01T01:18:00;101399;;;5.64;70.76
57250;BME280;43102;52.014;-0.680;2023-02-01T01:19:00;101399;;;5.64;70.76
57250;BME280;43102;52.014;-0.680;2023-02-01T01:20:00;101399;;;5.64;70.76
57250;BME280;43102;52.014;-0.680;2023-02-01T01:21:00;101399;;;5.64;70.76
57250;BME280;43102;52.014;-0.680;2023-02-01T01:22:00;101397;;;5.67;70.75
57250;BME280;43102;52.014;-0.680;2023-02-01T01:23:00;101397;;;5.67;70.75
57250;BME280;43102;52.014;-0.680;2023-02-01T01:24:00;101397;;;5.67;70.75
57250;BME280;43102;52.014;-0.680;2023-02-01T01:25:00;101397;;;5.67;70.75
57250;BME280;43102;52.014;-0.680;2023-02-01T01:26:00;101397;;;5.67;70.75
57250;BME280;43102;52.014;-0.680;2023-02-01T01:27:00;101389;;;5.61;71.16
57250;BME280;43102;52.014;-0.680;2023-02-01T01:28:00;101389;;;5.61;71.16
57250;BME280;43102;52.014;-0.680;2023-02-01T01:29:00;101389;;;5.61;71.16
57250;BME280;43102;52.014;-0.680;2023-02-01T01:30:00;101389;;;5.61;71.16
57250;BME280;43102;52.014;-0.680;2023-02-01T01:31:00;101389;;;5.61;71.16
57250;BME280;43102;52.014;-0.680;2023-02-01T01:32:00;101386;;;5.66;70.96
57250;BME280;43102;52.014;-0.680;2023-02-01T01:33:00;101386;;;5.66;70.96
57250;BME280;43102;52.014;-0.680;2023-02-01T01:34:01;101386;;;5.66;70.96
57250;BME280;43102;52.014;-0.680;2023-02-01T01:35:00;101386;;;5.66;70.96
57250;BME280;43102;52.014;-0.680;2023-02-01T01:36:00;101386;;;5.66;70.96
57250;BME280;43102;52.014;-0.680;2023-02-01T01:37:00;101385;;;5.61;70.93
57250;BME280;43102;52.014;-0.680;2023-02-01T01:38:00;101385;;;5.61;70.93
57250;BME280;43102;52.014;-0.680;2023-02-01T01:39:00;101385;;;5.61;70.93
57250;BME280;43102;52.014;-0.680;2023-02-01T01:40:00;101385;;;5.61;70.93
57250;BME280;43102;52.014;-0.680;2023-02-01T01:41:00;101385;;;5.61;70.93
57250;BME280;43102;52.014;-0.680;2023-02-01T01:42:00;101390;;;5.62;71.09
57250;BME280;43102;52.014;-0.680;2023-02-01T01:43:00;101390;;;5.62;71.09
57250;BME280;43102;52.014;-0.680;2023-02-01T01:44:01;101390;;;5.62;71.09
57250;BME280;43102;52.014;-0.680;2023-02-01T01:45:02;101390;;;5.62;71.09
57250;BME280;43102;52.014;-0.680;2023-02-01T01:46:00;101390;;;5.62;71.09
57250;BME280;43102;52.014;-0.680;2023-02-01T01:47:00;101388;;;5.64;71.12
57250;BME280;43102;52.014;-0.680;2023-02-01T01:49:03;101388;;;5.64;71.12
57250;BME280;43102;52.014;-0.680;2023-02-01T01:50:00;101388;;;5.64;71.12
57250;BME280;43102;52.014;-0.680;2023-02-01T01:51:01;101388;;;5.64;71.12
57250;BME280;43102;52.014;-0.680;2023-02-01T01:52:00;101390;;;5.63;71.07
57250;BME280;43102;52.014;-0.680;2023-02-01T01:53:00;101390;;;5.63;71.07
57250;BME280;43102;52.014;-0.680;2023-02-01T01:54:02;101390;;;5.63;71.07
57250;BME280;43102;52.014;-0.680;2023-02-01T01:55:00;101390;;;5.63;71.07
57250;BME280;43102;52.014;-0.680;2023-02-01T01:56:00;101390;;;5.63;71.07
57250;BME280;43102;52.014;-0.680;2023-02-01T01:57:01;101390;;;5.64;71.07
57250;BME280;43102;52.014;-0.680;2023-02-01T01:58:02;101390;;;5.64;71.07
57250;BME280;43102;52.014;-0.680;2023-02-01T01:59:00;101390;;;5.64;71.07
57250;BME280;43102;52.014;-0.680;2023-02-01T02:01:00;101390;;;5.64;71.07
57250;BME280;43102;52.014;-0.680;2023-02-01T02:02:00;101395;;;5.65;71.11
57250;BME280;43102;52.014;-0.680;2023-02-01T02:03:00;101395;;;5.65;71.11
57250;BME280;43102;52.014;-0.680;2023-02-01T02:04:00;101395;;;5.65;71.11
57250;BME280;43102;52.014;-0.680;2023-02-01T02:05:00;101395;;;5.65;71.11
57250;BME280;43102;52.014;-0.680;2023-02-01T02:06:00;101395;;;5.65;71.11
57250;BME280;43102;52.014;-0.680;2023-02-01T02:07:03;101406;;;5.64;71.18
57250;BME280;43102;52.014;-0.680;2023-02-01T02:08:00;101406;;;5.64;71.18
57250;BME280;43102;52.014;-0.680;2023-02-01T02:09:00;101406;;;5.64;71.18
57250;BME280;43102;52.014;-0.680;2023-02-01T02:10:00;101406;;;5.64;71.18
57250;BME280;43102;52.014;-0.680;2023-02-01T02:11:00;101406;;;5.64;71.18
57250;BME280;43102;52.014;-0.680;2023-02-01T02:12:00;101417;;;5.68;71.11
57250;BME280;43102;52.014;-0.680;2023-02-01T02:13:00;101417;;;5.68;71.11
57250;BME280;43102;52.014;-0.680;2023-02-01T02:14:00;101417;;;5.68;71.11
57250;BME280;43102;52.014;-0.680;2023-02-01T02:15:00;101417;;;5.68;71.11
57250;BME280;43102;52.014;-0.680;2023-02-01T02:18:03;101413;;;5.76;71.03
57250;BME280;43102;52.014;-0.680;2023-02-01T02:26:04;101409;;;5.82;70.92
57250;BME280;43102;52.014;-0.680;2023-02-01T02:31:13;101394;;;5.76;71.00
57250;BME280;43102;52.014;-0.680;2023-02-01T02:36:03;101393;;;5.73;71.13
57250;BME280;43102;52.014;-0.680;2023-02-01T02:37:04;101389;;;5.72;71.10
57250;BME280;43102;52.014;-0.680;2023-02-01T02:38:05;101389;;;5.72;71.10
57250;BME280;43102;52.014;-0.680;2023-02-01T02:42:22;101382;;;5.67;71.49
57250;BME280;43102;52.014;-0.680;2023-02-01T02:44:00;101382;;;5.67;71.49
57250;BME280;43102;52.014;-0.680;2023-02-01T02:46:01;101382;;;5.67;71.49
57250;BME280;43102;52.014;-0.680;2023-02-01T02:47:01;101385;;;5.68;71.40
57250;BME280;43102;52.014;-0.680;2023-02-01T02:48:08;101385;;;5.68;71.40
57250;BME280;43102;52.014;-0.680;2023-02-01T02:49:04;101385;;;5.68;71.40
57250;BME280;43102;52.014;-0.680;2023-02-01T02:51:01;101385;;;5.68;71.40
57250;BME280;43102;52.014;-0.680;2023-02-01T02:52:02;101389;;;5.71;71.27
57250;BME280;43102;52.014;-0.680;2023-02-01T02:53:02;101389;;;5.71;71.27
57250;BME280;43102;52.014;-0.680;2023-02-01T02:54:03;101389;;;5.71;71.27
57250;BME280;43102;52.014;-0.680;2023-02-01T02:55:00;101389;;;5.71;71.27
57250;BME280;43102;52.014;-0.680;2023-02-01T02:56:00;101389;;;5.71;71.27
57250;BME280;43102;52.014;-0.680;2023-02-01T02:57:00;101380;;;5.64;71.40
57250;BME280;43102;52.014;-0.680;2023-02-01T02:58:00;101380;;;5.64;71.40
57250;BME280;43102;52.014;-0.680;2023-02-01T02:59:00;101380;;;5.64;71.40
57250;BME280;43102;52.014;-0.680;2023-02-01T03:00:00;101380;;;5.64;71.40
57250;BME280;43102;52.014;-0.680;2023-02-01T03:01:00;101380;;;5.64;71.40
57250;BME280;43102;52.014;-0.680;2023-02-01T03:02:00;101386;;;5.68;71.42
57250;BME280;43102;52.014;-0.680;2023-02-01T03:03:00;101386;;;5.68;71.42
57250;BME280;43102;52.014;-0.680;2023-02-01T03:04:00;101386;;;5.68;71.42
57250;BME280;43102;52.014;-0.680;2023-02-01T03:05:00;101386;;;5.68;71.42
57250;BME280;43102;52.014;-0.680;2023-02-01T03:06:00;101386;;;5.68;71.42
57250;BME280;43102;52.014;-0.680;2023-02-01T03:09:01;101386;;;5.71;71.32
57250;BME280;43102;52.014;-0.680;2023-02-01T03:10:01;101386;;;5.71;71.32
57250;BME280;43102;52.014;-0.680;2023-02-01T03:12:02;101390;;;5.62;71.52
57250;BME280;43102;52.014;-0.680;2023-02-01T03:13:04;101390;;;5.62;71.52
57250;BME280;43102;52.014;-0.680;2023-02-01T03:14:00;101390;;;5.62;71.52
57250;BME280;43102;52.014;-0.680;2023-02-01T03:15:04;101390;;;5.62;71.52
57250;BME280;43102;52.014;-0.680;2023-02-01T03:17:02;101390;;;5.60;71.71
57250;BME280;43102;52.014;-0.680;2023-02-01T03:18:00;101390;;;5.60;71.71
57250;BME280;43102;52.014;-0.680;2023-02-01T03:20:00;101390;;;5.60;71.71
57250;BME280;43102;52.014;-0.680;2023-02-01T03:21:00;101390;;;5.60;71.71
57250;BME280;43102;52.014;-0.680;2023-02-01T03:22:02;101383;;;5.62;71.57
57250;BME280;43102;52.014;-0.680;2023-02-01T03:23:00;101383;;;5.62;71.57
57250;BME280;43102;52.014;-0.680;2023-02-01T03:24:01;101383;;;5.62;71.57
57250;BME280;43102;52.014;-0.680;2023-02-01T03:25:03;101383;;;5.62;71.57
57250;BME280;43102;52.014;-0.680;2023-02-01T03:26:00;101383;;;5.62;71.57
57250;BME280;43102;52.014;-0.680;2023-02-01T03:27:02;101374;;;5.58;71.71
57250;BME280;43102;52.014;-0.680;2023-02-01T03:28:01;101374;;;5.58;71.71
57250;BME280;43102;52.014;-0.680;2023-02-01T03:29:02;101374;;;5.58;71.71
57250;BME280;43102;52.014;-0.680;2023-02-01T03:31:00;101374;;;5.58;71.71
57250;BME280;43102;52.014;-0.680;2023-02-01T03:32:00;101370;;;5.53;71.88
57250;BME280;43102;52.014;-0.680;2023-02-01T03:33:00;101370;;;5.53;71.88
57250;BME280;43102;52.014;-0.680;2023-02-01T03:34:00;101370;;;5.53;71.88
57250;BME280;43102;52.014;-0.680;2023-02-01T03:35:00;101370;;;5.53;71.88
57250;BME280;43102;52.014;-0.680;2023-02-01T03:36:18;101370;;;5.53;71.88
57250;BME280;43102;52.014;-0.680;2023-02-01T03:37:01;101368;;;5.50;71.93
57250;BME280;43102;52.014;-0.680;2023-02-01T03:38:01;101368;;;5.50;71.93
57250;BME280;43102;52.014;-0.680;2023-02-01T03:39:04;101368;;;5.50;71.93
57250;BME280;43102;52.014;-0.680;2023-02-01T03:40:00;101368;;;5.50;71.93
57250;BME280;43102;52.014;-0.680;2023-02-01T03:42:00;101370;;;5.49;71.94
57250;BME280;43102;52.014;-0.680;2023-02-01T03:43:00;101370;;;5.49;71.94
57250;BME280;43102;52.014;-0.680;2023-02-01T03:45:02;101370;;;5.49;71.94
57250;BME280;43102;52.014;-0.680;2023-02-01T03:46:01;101370;;;5.49;71.94
57250;BME280;43102;52.014;-0.680;2023-02-01T03:48:00;101364;;;5.50;71.91
57250;BME280;43102;52.014;-0.680;2023-02-01T03:49:01;101364;;;5.50;71.91
57250;BME280;43102;52.014;-0.680;2023-02-01T03:50:01;101364;;;5.50;71.91
57250;BME280;43102;52.014;-0.680;2023-02-01T03:51:00;101364;;;5.50;71.91
57250;BME280;43102;52.014;-0.680;2023-02-01T03:52:00;101362;;;5.48;72.01
57250;BME280;43102;52.014;-0.680;2023-02-01T03:53:05;101362;;;5.48;72.01
57250;BME280;43102;52.014;-0.680;2023-02-01T03:54:01;101362;;;5.48;72.01
57250;BME280;43102;52.014;-0.680;2023-02-01T03:55:00;101362;;;5.48;72.01
57250;BME280;43102;52.014;-0.680;2023-02-01T03:56:00;101362;;;5.48;72.01
57250;BME280;43102;52.014;-0.680;2023-02-01T03:57:01;101358;;;5.46;72.02
57250;BME280;43102;52.014;-0.680;2023-02-01T03:58:04;101358;;;5.46;72.02
57250;BME280;43102;52.014;-0.680;2023-02-01T03:59:00;101358;;;5.46;72.02
57250;BME280;43102;52.014;-0.680;2023-02-01T04:00:05;101358;;;5.46;72.02
57250;BME280;43102;52.014;-0.680;2023-02-01T04:01:00;101358;;;5.46;72.02
57250;BME280;43102;52.014;-0.680;2023-02-01T04:02:00;101354;;;5.43;72.14
57250;BME280;43102;52.014;-0.680;2023-02-01T04:03:00;101354;;;5.43;72.14
57250;BME280;43102;52.014;-0.680;2023-02-01T04:04:00;101354;;;5.43;72.14
57250;BME280;43102;52.014;-0.680;2023-02-01T04:05:00;101354;;;5.43;72.14
57250;BME280;43102;52.014;-0.680;2023-02-01T04:06:00;101354;;;5.43;72.14
57250;BME280;43102;52.014;-0.680;2023-02-01T04:07:00;101358;;;5.45;72.05
57250;BME280;43102;52.014;-0.680;2023-02-01T04:08:00;101358;;;5.45;72.05
57250;BME280;43102;52.014;-0.680;2023-02-01T04:09:00;101358;;;5.45;72.05
57250;BME280;43102;52.014;-0.680;2023-02-01T04:10:00;101358;;;5.45;72.05
57250;BME280;43102;52.014;-0.680;2023-02-01T04:11:00;101358;;;5.45;72.05
57250;BME280;43102;52.014;-0.680;2023-02-01T04:12:00;101351;;;5.46;72.02
57250;BME280;43102;52.014;-0.680;2023-02-01T04:13:00;101351;;;5.46;72.02
57250;BME280;43102;52.014;-0.680;2023-02-01T04:14:00;101351;;;5.46;72.02
57250;BME280;43102;52.014;-0.680;2023-02-01T04:15:00;101351;;;5.46;72.02
57250;BME280;43102;52.014;-0.680;2023-02-01T04:16:00;101351;;;5.46;72.02
57250;BME280;43102;52.014;-0.680;2023-02-01T04:17:00;101360;;;5.49;71.96
57250;BME280;43102;52.014;-0.680;2023-02-01T04:18:00;101360;;;5.49;71.96
57250;BME280;43102;52.014;-0.680;2023-02-01T04:19:00;101360;;;5.49;71.96
57250;BME280;43102;52.014;-0.680;2023-02-01T04:20:00;101360;;;5.49;71.96
57250;BME280;43102;52.014;-0.680;2023-02-01T04:21:00;101360;;;5.49;71.96
57250;BME280;43102;52.014;-0.680;2023-02-01T04:22:00;101349;;;5.47;71.92
57250;BME280;43102;52.014;-0.680;2023-02-01T04:23:00;101349;;;5.47;71.92
57250;BME280;43102;52.014;-0.680;2023-02-01T04:24:00;101349;;;5.47;71.92
57250;BME280;43102;52.014;-0.680;2023-02-01T04:25:00;101349;;;5.47;71.92
57250;BME280;43102;52.014;-0.680;2023-02-01T04:26:00;101349;;;5.47;71.92
57250;BME280;43102;52.014;-0.680;2023-02-01T04:27:00;101352;;;5.42;71.98
57250;BME280;43102;52.014;-0.680;2023-02-01T04:28:00;101352;;;5.42;71.98
57250;BME280;43102;52.014;-0.680;2023-02-01T04:29:00;101352;;;5.42;71.98
57250;BME280;43102;52.014;-0.680;2023-02-01T04:30:00;101352;;;5.42;71.98
57250;BME280;43102;52.014;-0.680;2023-02-01T04:31:00;101352;;;5.42;71.98
57250;BME280;43102;52.014;-0.680;2023-02-01T04:32:00;101357;;;5.41;72.04
57250;BME280;43102;52.014;-0.680;2023-02-01T04:33:00;101357;;;5.41;72.04
57250;BME280;43102;52.014;-0.680;2023-02-01T04:34:00;101357;;;5.41;72.04
57250;BME280;43102;52.014;-0.680;2023-02-01T04:35:00;101357;;;5.41;72.04
57250;BME280;43102;52.014;-0.680;2023-02-01T04:36:00;101357;;;5.41;72.04
57250;BME280;43102;52.014;-0.680;2023-02-01T04:37:00;101364;;;5.39;72.03
57250;BME280;43102;52.014;-0.680;2023-02-01T04:38:00;101364;;;5.39;72.03
57250;BME280;43102;52.014;-0.680;2023-02-01T04:39:00;101364;;;5.39;72.03
57250;BME280;43102;52.014;-0.680;2023-02-01T04:40:00;101364;;;5.39;72.03
57250;BME280;43102;52.014;-0.680;2023-02-01T04:41:00;101364;;;5.39;72.03
57250;BME280;43102;52.014;-0.680;2023-02-01T04:42:00;101361;;;5.38;72.01
57250;BME280;43102;52.014;-0.680;2023-02-01T04:43:00;101361;;;5.38;72.01
57250;BME280;43102;52.014;-0.680;2023-02-01T04:44:00;101361;;;5.38;72.01
57250;BME280;43102;52.014;-0.680;2023-02-01T04:45:00;101361;;;5.38;72.01
57250;BME280;43102;52.014;-0.680;2023-02-01T04:46:00;101361;;;5.38;72.01
57250;BME280;43102;52.014;-0.680;2023-02-01T04:47:00;101363;;;5.36;72.21
57250;BME280;43102;52.014;-0.680;2023-02-01T04:48:00;101363;;;5.36;72.21
57250;BME280;43102;52.014;-0.680;2023-02-01T04:49:00;101363;;;5.36;72.21
57250;BME280;43102;52.014;-0.680;2023-02-01T04:50:00;101363;;;5.36;72.21
57250;BME280;43102;52.014;-0.680;2023-02-01T04:51:00;101363;;;5.36;72.21
57250;BME280;43102;52.014;-0.680;2023-02-01T04:52:00;101368;;;5.33;72.07
57250;BME280;43102;52.014;-0.680;2023-02-01T04:53:00;101368;;;5.33;72.07
57250;BME280;43102;52.014;-0.680;2023-02-01T04:54:00;101368;;;5.33;72.07
57250;BME280;43102;52.014;-0.680;2023-02-01T04:55:00;101368;;;5.33;72.07
57250;BME280;43102;52.014;-0.680;2023-02-01T04:56:00;101368;;;5.33;72.07
57250;BME280;43102;52.014;-0.680;2023-02-01T04:57:00;101373;;;5.29;72.13
57250;BME280;43102;52.014;-0.680;2023-02-01T04:58:00;101373;;;5.29;72.13
57250;BME280;43102;52.014;-0.680;2023-02-01T04:59:00;101373;;;5.29;72.13
57250;BME280;43102;52.014;-0.680;2023-02-01T05:00:00;101373;;;5.29;72.13
57250;BME280;43102;52.014;-0.680;2023-02-01T05:01:02;101373;;;5.29;72.13
57250;BME280;43102;52.014;-0.680;2023-02-01T05:02:00;101379;;;5.19;72.34
57250;BME280;43102;52.014;-0.680;2023-02-01T05:03:00;101379;;;5.19;72.34
57250;BME280;43102;52.014;-0.680;2023-02-01T05:04:00;101379;;;5.19;72.34
57250;BME280;43102;52.014;-0.680;2023-02-01T05:05:00;101379;;;5.19;72.34
57250;BME280;43102;52.014;-0.680;2023-02-01T05:06:00;101379;;;5.19;72.34
57250;BME280;43102;52.014;-0.680;2023-02-01T05:07:00;101380;;;5.11;72.60
57250;BME280;43102;52.014;-0.680;2023-02-01T05:08:00;101380;;;5.11;72.60
57250;BME280;43102;52.014;-0.680;2023-02-01T05:09:00;101380;;;5.11;72.60
57250;BME280;43102;52.014;-0.680;2023-02-01T05:10:00;101380;;;5.11;72.60
57250;BME280;43102;52.014;-0.680;2023-02-01T05:11:00;101380;;;5.11;72.60
57250;BME280;43102;52.014;-0.680;2023-02-01T05:12:00;101377;;;5.06;72.87
57250;BME280;43102;52.014;-0.680;2023-02-01T05:13:00;101377;;;5.06;72.87
57250;BME280;43102;52.014;-0.680;2023-02-01T05:14:00;101377;;;5.06;72.87
57250;BME280;43102;52.014;-0.680;2023-02-01T05:15:00;101377;;;5.06;72.87
57250;BME280;43102;52.014;-0.680;2023-02-01T05:16:00;101377;;;5.06;72.87
57250;BME280;43102;52.014;-0.680;2023-02-01T05:17:00;101380;;;4.99;73.07
57250;BME280;43102;52.014;-0.680;2023-02-01T05:18:00;101380;;;4.99;73.07
57250;BME280;43102;52.014;-0.680;2023-02-01T05:19:00;101380;;;4.99;73.07
57250;BME280;43102;52.014;-0.680;2023-02-01T05:20:00;101380;;;4.99;73.07
57250;BME280;43102;52.014;-0.680;2023-02-01T05:21:00;101380;;;4.99;73.07
57250;BME280;43102;52.014;-0.680;2023-02-01T05:22:00;101382;;;4.95;73.12
57250;BME280;43102;52.014;-0.680;2023-02-01T05:23:00;101382;;;4.95;73.12
57250;BME280;43102;52.014;-0.680;2023-02-01T05:24:00;101382;;;4.95;73.12
57250;BME280;43102;52.014;-0.680;2023-02-01T05:25:00;101382;;;4.95;73.12
57250;BME280;43102;52.014;-0.680;2023-02-01T05:26:00;101382;;;4.95;73.12
57250;BME280;43102;52.014;-0.680;2023-02-01T05:27:00;101376;;;4.93;73.49
57250;BME280;43102;52.014;-0.680;2023-02-01T05:28:00;101376;;;4.93;73.49
57250;BME280;43102;52.014;-0.680;2023-02-01T05:29:00;101376;;;4.93;73.49
57250;BME280;43102;52.014;-0.680;2023-02-01T05:30:00;101376;;;4.93;73.49
57250;BME280;43102;52.014;-0.680;2023-02-01T05:31:00;101376;;;4.93;73.49
57250;BME280;43102;52.014;-0.680;2023-02-01T05:32:00;101374;;;4.96;73.38
57250;BME280;43102;52.014;-0.680;2023-02-01T05:33:00;101374;;;4.96;73.38
57250;BME280;43102;52.014;-0.680;2023-02-01T05:34:00;101374;;;4.96;73.38
57250;BME280;43102;52.014;-0.680;2023-02-01T05:35:00;101374;;;4.96;73.38
57250;BME280;43102;52.014;-0.680;2023-02-01T05:36:00;101374;;;4.96;73.38
57250;BME280;43102;52.014;-0.680;2023-02-01T05:37:00;101367;;;4.97;73.44
57250;BME280;43102;52.014;-0.680;2023-02-01T05:38:00;101367;;;4.97;73.44
57250;BME280;43102;52.014;-0.680;2023-02-01T05:39:00;101367;;;4.97;73.44
57250;BME280;43102;52.014;-0.680;2023-02-01T05:40:00;101367;;;4.97;73.44
57250;BME280;43102;52.014;-0.680;2023-02-01T05:41:00;101367;;;4.97;73.44
57250;BME280;43102;52.014;-0.680;2023-02-01T05:42:00;101359;;;4.95;73.51
57250;BME280;43102;52.014;-0.680;2023-02-01T05:43:00;101359;;;4.95;73.51
57250;BME280;43102;52.014;-0.680;2023-02-01T05:44:00;101359;;;4.95;73.51
57250;BME280;43102;52.014;-0.680;2023-02-01T05:45:00;101359;;;4.95;73.51
57250;BME280;43102;52.014;-0.680;2023-02-01T05:46:00;101359;;;4.95;73.51
57250;BME280;43102;52.014;-0.680;2023-02-01T05:47:00;101348;;;4.89;73.69
57250;BME280;43102;52.014;-0.680;2023-02-01T05:48:00;101348;;;4.89;73.69
57250;BME280;43102;52.014;-0.680;2023-02-01T05:49:00;101348;;;4.89;73.69
57250;BME280;43102;52.014;-0.680;2023-02-01T05:50:00;101348;;;4.89;73.69
57250;BME280;43102;52.014;-0.680;2023-02-01T05:51:00;101348;;;4.89;73.69
57250;BME280;43102;52.014;-0.680;2023-02-01T05:52:00;101348;;;4.90;73.87
57250;BME280;43102;52.014;-0.680;2023-02-01T05:53:00;101348;;;4.90;73.87
57250;BME280;43102;52.014;-0.680;2023-02-01T05:54:00;101348;;;4.90;73.87
57250;BME280;43102;52.014;-0.680;2023-02-01T05:55:00;101348;;;4.90;73.87
57250;BME280;43102;52.014;-0.680;2023-02-01T05:56:00;101348;;;4.90;73.87
57250;BME280;43102;52.014;-0.680;2023-02-01T05:57:00;101348;;;4.86;74.29
57250;BME280;43102;52.014;-0.680;2023-02-01T05:58:00;101348;;;4.86;74.29
57250;BME280;43102;52.014;-0.680;2023-02-01T05:59:00;101348;;;4.86;74.29
57250;BME280;43102;52.014;-0.680;2023-02-01T06:00:00;101348;;;4.86;74.29